createdAt,value
2022-10-23T00:01:31.536Z,2.20
2022-10-23T00:03:55.786Z,2.80
2022-10-23T00:06:17.512Z,2.20
2022-10-23T00:08:39.465Z,2.73
2022-10-23T00:11:01.223Z,2.30
2022-10-23T00:13:22.699Z,2.60
2022-10-23T00:15:44.209Z,2.17
2022-10-23T00:18:05.845Z,1.90
2022-10-23T00:20:27.437Z,1.43
2022-10-23T00:22:48.918Z,1.83
2022-10-23T00:25:11.259Z,1.80
2022-10-23T00:27:33.031Z,1.80
2022-10-23T00:29:54.552Z,1.73
2022-10-23T00:32:16.082Z,1.90
2022-10-23T00:34:37.554Z,1.97
2022-10-23T00:36:59.034Z,1.70
2022-10-23T00:39:20.517Z,2.10
2022-10-23T00:41:42.940Z,1.90
2022-10-23T00:44:18.252Z,2.10
2022-10-23T00:46:40.139Z,2.10
2022-10-23T00:49:02.629Z,1.60
2022-10-23T00:51:27.608Z,1.70
2022-10-23T00:54:01.258Z,1.50
2022-10-23T00:56:38.105Z,2.43
2022-10-23T00:58:59.617Z,1.93
2022-10-23T01:01:23.378Z,2.10
2022-10-23T01:03:45.742Z,1.63
2022-10-23T01:06:38.104Z,2.30
2022-10-23T01:09:12.801Z,1.87
2022-10-23T01:12:13.316Z,1.80
2022-10-23T01:14:46.705Z,2.00
2022-10-23T01:17:25.666Z,1.83
2022-10-23T01:20:08.652Z,1.43
2022-10-23T01:23:08.638Z,1.77
2022-10-23T01:25:56.278Z,1.20
2022-10-23T01:28:29.505Z,1.40
2022-10-23T01:30:51.318Z,1.40
2022-10-23T01:33:24.788Z,1.20
2022-10-23T01:35:52.563Z,1.40
2022-10-23T01:38:21.995Z,1.10
2022-10-23T01:40:55.046Z,1.63
2022-10-23T01:43:22.662Z,1.20
2022-10-23T01:45:50.825Z,2.03
2022-10-23T01:48:17.046Z,1.70
2022-10-23T01:50:41.775Z,2.03
2022-10-23T01:53:04.900Z,2.20
2022-10-23T01:55:26.943Z,2.30
2022-10-23T01:57:50.330Z,2.63
2022-10-23T02:00:15.291Z,2.70
2022-10-23T02:02:39.256Z,1.67
2022-10-23T02:05:07.730Z,1.53
2022-10-23T02:07:30.408Z,1.43
2022-10-23T02:09:52.281Z,1.40
2022-10-23T02:12:24.590Z,1.70
2022-10-23T02:14:51.284Z,1.50
2022-10-23T02:17:30.332Z,1.73
2022-10-23T02:20:13.774Z,1.67
2022-10-23T02:22:41.021Z,1.30
2022-10-23T02:25:20.898Z,1.27
2022-10-23T02:27:49.322Z,1.40
2022-10-23T02:30:13.775Z,1.70
2022-10-23T02:32:37.247Z,1.50
2022-10-23T02:34:59.206Z,2.43
2022-10-23T02:39:43.753Z,1.67
2022-10-23T02:42:05.215Z,2.07
2022-10-23T02:44:32.641Z,1.70
2022-10-23T02:47:09.165Z,1.73
2022-10-23T02:49:30.577Z,2.30
2022-10-23T02:52:08.148Z,2.47
2022-10-23T02:54:53.449Z,2.23
2022-10-23T02:57:23.944Z,2.63
2022-10-23T03:00:00.927Z,2.80
2022-10-23T03:02:26.620Z,1.90
2022-10-23T03:04:50.170Z,2.70
2022-10-23T03:07:13.704Z,2.83
2022-10-23T03:09:36.841Z,2.87
2022-10-23T03:11:58.339Z,3.43
2022-10-23T03:14:19.836Z,2.80
2022-10-23T03:16:41.352Z,2.50
2022-10-23T03:19:02.948Z,3.10
2022-10-23T03:21:24.662Z,3.00
2022-10-23T03:23:46.199Z,3.13
2022-10-23T03:26:07.755Z,2.20
2022-10-23T03:28:29.284Z,2.47
2022-10-23T03:30:50.780Z,2.70
2022-10-23T03:33:12.279Z,2.90
2022-10-23T03:35:33.800Z,3.20
2022-10-23T03:37:55.312Z,3.23
2022-10-23T03:40:16.855Z,2.73
2022-10-23T03:42:38.342Z,3.03
2022-10-23T03:44:59.799Z,3.00
2022-10-23T03:47:21.275Z,2.30
2022-10-23T03:49:42.772Z,2.77
2022-10-23T03:52:04.871Z,3.10
2022-10-23T03:54:27.779Z,2.60
2022-10-23T03:56:52.431Z,2.30
2022-10-23T03:59:17.130Z,2.80
2022-10-23T04:01:38.739Z,2.90
2022-10-23T04:04:00.333Z,3.13
2022-10-23T04:06:21.820Z,4.03
2022-10-23T04:08:44.580Z,3.43
2022-10-23T04:11:06.106Z,4.33
2022-10-23T04:13:27.609Z,4.73
2022-10-23T04:15:50.889Z,6.67
2022-10-23T04:18:12.360Z,7.37
2022-10-23T04:20:33.835Z,6.83
2022-10-23T04:22:55.347Z,6.30
2022-10-23T04:25:17.075Z,4.90
2022-10-23T04:27:38.575Z,5.67
2022-10-23T04:30:00.462Z,4.70
2022-10-23T04:32:22.018Z,6.17
2022-10-23T04:34:43.508Z,7.20
2022-10-23T04:37:04.990Z,7.70
2022-10-23T04:39:26.448Z,8.27
2022-10-23T04:41:48.089Z,8.53
2022-10-23T04:44:09.560Z,8.17
2022-10-23T04:46:31.044Z,8.17
2022-10-23T04:48:52.516Z,8.67
2022-10-23T04:51:14.048Z,9.60
2022-10-23T04:53:35.632Z,9.87
2022-10-23T04:55:59.127Z,10.13
2022-10-23T04:58:21.157Z,9.23
2022-10-23T05:00:42.706Z,9.33
2022-10-23T05:03:04.221Z,9.53
2022-10-23T05:05:25.773Z,9.50
2022-10-23T05:07:47.256Z,9.30
2022-10-23T05:10:09.276Z,9.53
2022-10-23T05:12:30.801Z,8.83
2022-10-23T05:14:52.463Z,8.77
2022-10-23T05:17:19.128Z,8.60
2022-10-23T05:19:46.110Z,7.80
2022-10-23T05:22:09.638Z,7.80
2022-10-23T05:24:31.162Z,7.70
2022-10-23T05:26:53.044Z,7.27
2022-10-23T05:29:14.507Z,7.17
2022-10-23T05:31:36.567Z,6.40
2022-10-23T05:33:58.056Z,7.03
2022-10-23T05:36:19.665Z,6.67
2022-10-23T05:38:41.624Z,7.23
2022-10-23T05:41:03.327Z,7.40
2022-10-23T05:43:27.268Z,8.20
2022-10-23T05:45:49.099Z,8.47
2022-10-23T05:48:11.404Z,7.97
2022-10-23T05:50:43.757Z,7.40
2022-10-23T05:53:05.238Z,7.73
2022-10-23T05:55:26.833Z,7.37
2022-10-23T05:57:48.306Z,6.60
2022-10-23T06:00:10.669Z,7.37
2022-10-23T06:02:32.909Z,7.40
2022-10-23T06:04:54.507Z,6.70
2022-10-23T06:07:16.116Z,7.07
2022-10-23T06:09:37.637Z,7.50
2022-10-23T06:11:59.125Z,6.67
2022-10-23T06:14:20.712Z,6.60
2022-10-23T06:16:42.681Z,6.93
2022-10-23T06:19:04.451Z,6.90
2022-10-23T06:21:26.004Z,7.30
2022-10-23T06:23:47.862Z,6.47
2022-10-23T06:26:12.479Z,6.40
2022-10-23T06:28:34.413Z,6.60
2022-10-23T06:30:55.939Z,6.23
2022-10-23T06:33:17.524Z,7.27
2022-10-23T06:35:39.071Z,8.87
2022-10-23T06:38:00.528Z,8.53
2022-10-23T06:40:22.036Z,8.50
2022-10-23T06:42:43.818Z,8.37
2022-10-23T06:45:07.231Z,8.60
2022-10-23T06:47:28.846Z,9.77
2022-10-23T06:49:50.315Z,8.10
2022-10-23T06:52:23.135Z,8.40
2022-10-23T06:54:53.257Z,10.60
2022-10-23T06:57:14.712Z,8.87
2022-10-23T06:59:36.196Z,9.37
2022-10-23T07:01:57.745Z,8.10
2022-10-23T07:04:19.287Z,7.67
2022-10-23T07:06:42.169Z,7.83
2022-10-23T07:09:03.845Z,8.00
2022-10-23T07:11:25.762Z,7.33
2022-10-23T07:13:47.230Z,7.67
2022-10-23T07:16:14.732Z,7.90
2022-10-23T07:18:36.219Z,9.27
2022-10-23T07:20:58.643Z,8.87
2022-10-23T07:23:20.095Z,10.90
2022-10-23T07:25:42.021Z,9.63
2022-10-23T07:28:04.776Z,8.60
2022-10-23T07:30:26.316Z,9.97
2022-10-23T07:32:47.794Z,9.77
2022-10-23T07:35:10.620Z,8.83
2022-10-23T07:37:32.231Z,7.00
2022-10-23T07:39:53.814Z,6.87
2022-10-23T07:42:15.286Z,7.13
2022-10-23T07:44:36.758Z,6.53
2022-10-23T07:46:58.228Z,6.07
2022-10-23T07:49:19.707Z,5.97
2022-10-23T07:51:41.442Z,6.13
2022-10-23T07:54:03.083Z,6.07
2022-10-23T07:56:29.809Z,6.03
2022-10-23T07:58:53.844Z,6.10
2022-10-23T08:01:18.969Z,6.67
2022-10-23T08:03:40.473Z,5.53
2022-10-23T08:06:01.959Z,5.00
2022-10-23T08:08:24.813Z,5.20
2022-10-23T08:10:47.987Z,4.80
2022-10-23T08:13:12.946Z,4.88
2022-10-23T08:15:34.414Z,4.60
2022-10-23T08:17:55.895Z,4.80
2022-10-23T08:20:17.595Z,4.50
2022-10-23T08:22:40.092Z,4.80
2022-10-23T08:25:01.599Z,4.53
2022-10-23T08:27:23.120Z,4.63
2022-10-23T08:29:44.600Z,8.15
2022-10-23T08:32:06.124Z,5.60
2022-10-23T08:34:27.924Z,6.75
2022-10-23T08:36:49.851Z,7.72
2022-10-23T08:39:11.333Z,6.15
2022-10-23T08:41:40.340Z,5.45
2022-10-23T08:44:26.044Z,5.43
2022-10-23T08:46:54.289Z,5.55
2022-10-23T08:49:35.489Z,5.28
2022-10-23T08:52:02.458Z,5.82
2022-10-23T08:54:35.165Z,5.30
2022-10-23T08:57:10.959Z,12.77
2022-10-23T08:59:33.175Z,10.60
2022-10-23T09:02:22.500Z,7.50
2022-10-23T09:04:48.022Z,7.55
2022-10-23T09:07:41.197Z,5.85
2022-10-23T09:10:23.395Z,4.22
2022-10-23T09:12:47.765Z,3.97
2022-10-23T09:15:30.602Z,3.00
2022-10-23T09:18:04.747Z,2.22
2022-10-23T09:20:37.073Z,2.80
2022-10-23T09:23:04.203Z,2.60
2022-10-23T09:25:29.440Z,2.45
2022-10-23T09:27:58.188Z,2.63
2022-10-23T09:30:39.197Z,2.83
2022-10-23T09:33:14.150Z,3.40
2022-10-23T09:35:35.665Z,3.20
2022-10-23T09:37:57.281Z,2.50
2022-10-23T09:40:39.256Z,2.50
2022-10-23T09:43:04.389Z,2.97
2022-10-23T09:45:33.258Z,2.60
2022-10-23T09:48:16.382Z,2.95
2022-10-23T09:50:42.337Z,3.00
2022-10-23T09:53:04.231Z,2.88
2022-10-23T09:55:27.381Z,2.95
2022-10-23T09:57:49.733Z,3.03
2022-10-23T10:00:14.016Z,3.03
2022-10-23T10:02:36.992Z,3.42
2022-10-23T10:04:59.165Z,2.58
2022-10-23T10:07:23.722Z,3.15
2022-10-23T10:09:45.287Z,3.05
2022-10-23T10:12:40.771Z,3.00
2022-10-23T10:15:18.913Z,2.70
2022-10-23T10:18:02.739Z,2.38
2022-10-23T10:20:41.427Z,2.55
2022-10-23T10:23:36.943Z,2.65
2022-10-23T10:25:58.367Z,2.60
2022-10-23T10:28:49.154Z,2.60
2022-10-23T10:31:35.271Z,2.42
2022-10-23T10:34:20.976Z,1.83
2022-10-23T10:36:53.595Z,1.60
2022-10-23T10:39:27.622Z,1.95
2022-10-23T10:41:57.997Z,2.13
2022-10-23T10:44:47.067Z,2.10
2022-10-23T10:47:23.294Z,2.42
2022-10-23T10:50:14.954Z,2.85
2022-10-23T10:52:48.290Z,2.60
2022-10-23T10:55:40.910Z,2.95
2022-10-23T10:58:24.330Z,2.70
2022-10-23T11:00:49.595Z,2.70
2022-10-23T11:03:39.182Z,3.00
2022-10-23T11:06:09.208Z,3.30
2022-10-23T11:08:49.925Z,4.07
2022-10-23T11:11:27.084Z,3.25
2022-10-23T11:13:51.113Z,2.88
2022-10-23T11:16:23.687Z,2.53
2022-10-23T11:19:14.110Z,3.08
2022-10-23T11:22:02.092Z,3.20
2022-10-23T11:24:26.528Z,3.38
2022-10-23T11:27:13.437Z,3.55
2022-10-23T11:30:03.727Z,3.58
2022-10-23T11:32:51.384Z,2.88
2022-10-23T11:35:37.630Z,2.88
2022-10-23T11:38:28.074Z,3.05
2022-10-23T11:40:53.442Z,2.80
2022-10-23T11:43:26.845Z,2.33
2022-10-23T11:45:48.360Z,2.60
2022-10-23T11:48:37.628Z,2.38
2022-10-23T11:51:01.469Z,2.08
2022-10-23T11:53:39.986Z,2.55
2022-10-23T11:56:14.534Z,1.95
2022-10-23T11:58:52.835Z,1.88
2022-10-23T12:01:32.420Z,2.47
2022-10-23T12:04:17.938Z,2.08
2022-10-23T12:06:43.045Z,1.90
2022-10-23T12:09:22.432Z,1.73
2022-10-23T12:12:21.632Z,1.77
2022-10-23T12:14:50.854Z,2.30
2022-10-23T12:17:24.283Z,3.75
2022-10-23T12:19:53.074Z,3.55
2022-10-23T12:22:15.227Z,2.65
2022-10-23T12:24:41.833Z,2.35
2022-10-23T12:27:31.336Z,1.77
2022-10-23T12:30:22.487Z,1.88
2022-10-23T12:33:11.516Z,2.03
2022-10-23T12:35:54.182Z,1.70
2022-10-23T12:38:31.311Z,1.75
2022-10-23T12:41:02.429Z,2.00
2022-10-23T12:43:30.619Z,2.03
2022-10-23T12:45:52.452Z,1.80
2022-10-23T12:48:23.112Z,1.88
2022-10-23T12:50:50.396Z,2.00
2022-10-23T12:53:17.809Z,1.60
2022-10-23T12:58:30.124Z,2.08
2022-10-23T13:00:57.075Z,1.77
2022-10-23T13:03:20.833Z,1.75
2022-10-23T13:05:42.791Z,2.03
2022-10-23T13:08:05.436Z,1.83
2022-10-23T13:10:27.372Z,1.95
2022-10-23T13:13:07.075Z,2.00
2022-10-23T13:15:44.241Z,5.00
2022-10-23T13:18:07.280Z,6.45
2022-10-23T13:20:35.261Z,3.95
2022-10-23T13:23:01.227Z,2.25
2022-10-23T13:25:26.604Z,2.13
2022-10-23T13:27:48.194Z,1.80
2022-10-23T13:30:33.322Z,2.15
2022-10-23T13:32:54.787Z,1.90
2022-10-23T13:35:23.365Z,1.90
2022-10-23T13:40:25.923Z,2.28
2022-10-23T13:42:51.202Z,2.30
2022-10-23T13:45:19.117Z,1.98
2022-10-23T13:47:40.800Z,1.98
2022-10-23T13:50:02.435Z,1.95
2022-10-23T13:52:23.939Z,2.10
2022-10-23T13:54:45.807Z,2.20
2022-10-23T13:57:13.640Z,2.30
2022-10-23T13:59:35.108Z,2.10
2022-10-23T14:01:56.734Z,2.10
2022-10-23T14:04:19.268Z,2.20
2022-10-23T14:06:42.132Z,1.73
2022-10-23T14:09:08.849Z,2.65
2022-10-23T14:11:30.802Z,2.17
2022-10-23T14:13:52.803Z,2.10
2022-10-23T14:16:16.872Z,1.98
2022-10-23T14:18:38.399Z,1.83
2022-10-23T14:21:04.752Z,1.98
2022-10-23T14:23:26.234Z,1.90
2022-10-23T14:25:47.711Z,1.65
2022-10-23T14:28:09.215Z,1.95
2022-10-23T14:30:31.172Z,1.63
2022-10-23T14:32:52.719Z,1.73
2022-10-23T14:35:14.319Z,2.00
2022-10-23T14:37:35.823Z,2.00
2022-10-23T14:39:57.631Z,2.10
2022-10-23T14:42:19.143Z,1.80
2022-10-23T14:44:40.656Z,1.67
2022-10-23T14:47:03.096Z,1.90
2022-10-23T14:49:24.600Z,1.75
2022-10-23T14:51:46.096Z,2.00
2022-10-23T14:54:08.212Z,2.15
2022-10-23T14:56:32.418Z,2.10
2022-10-23T14:58:54.725Z,2.10
2022-10-23T15:01:16.376Z,2.08
2022-10-23T15:03:38.333Z,2.25
2022-10-23T15:05:59.810Z,1.88
2022-10-23T15:08:22.941Z,2.13
2022-10-23T15:10:44.402Z,2.25
2022-10-23T15:13:05.940Z,2.25
2022-10-23T15:15:27.425Z,2.55
2022-10-23T15:17:48.944Z,2.20
2022-10-23T15:20:10.717Z,2.30
2022-10-23T15:22:32.182Z,1.98
2022-10-23T15:24:53.950Z,2.40
2022-10-23T15:27:15.494Z,2.10
2022-10-23T15:29:37.000Z,2.20
2022-10-23T15:31:59.160Z,2.63
2022-10-23T15:34:27.130Z,1.85
2022-10-23T15:36:49.642Z,2.55
2022-10-23T15:39:11.932Z,2.70
2022-10-23T15:41:35.214Z,2.47
2022-10-23T15:43:58.371Z,2.03
2022-10-23T15:46:19.876Z,2.42
2022-10-23T15:48:42.681Z,2.00
2022-10-23T15:51:04.386Z,2.67
2022-10-23T15:53:26.556Z,2.28
2022-10-23T15:55:48.036Z,2.53
2022-10-23T15:58:09.578Z,2.40
2022-10-23T16:03:02.121Z,2.22
2022-10-23T16:05:23.628Z,2.60
2022-10-23T16:07:45.130Z,2.53
2022-10-23T16:10:06.881Z,2.22
2022-10-23T16:12:28.722Z,2.78
2022-10-23T16:14:50.254Z,3.17
2022-10-23T16:17:13.265Z,2.88
2022-10-23T16:19:34.801Z,2.80
2022-10-23T16:21:56.294Z,2.67
2022-10-23T16:24:17.782Z,2.60
2022-10-23T16:26:39.792Z,3.08
2022-10-23T16:29:05.295Z,4.30
2022-10-23T16:31:27.662Z,3.58
2022-10-23T16:33:50.112Z,3.10
2022-10-23T16:36:12.034Z,2.60
2022-10-23T16:38:33.840Z,2.70
2022-10-23T16:40:55.343Z,2.72
2022-10-23T16:43:16.838Z,3.20
2022-10-23T16:45:38.332Z,3.50
2022-10-23T16:47:59.834Z,2.85
2022-10-23T16:50:21.542Z,2.85
2022-10-23T16:52:43.277Z,3.67
2022-10-23T16:55:05.238Z,3.30
2022-10-23T16:57:29.751Z,3.10
2022-10-23T16:59:51.203Z,3.25
2022-10-23T17:02:13.208Z,3.80
2022-10-23T17:04:36.115Z,3.70
2022-10-23T17:06:57.615Z,3.90
2022-10-23T17:09:19.426Z,4.25
2022-10-23T17:11:44.119Z,3.17
2022-10-23T17:14:08.682Z,4.50
2022-10-23T17:16:34.811Z,4.18
2022-10-23T17:18:57.465Z,3.55
2022-10-23T17:21:20.868Z,3.80
2022-10-23T17:23:43.156Z,3.75
2022-10-23T17:26:08.344Z,3.25
2022-10-23T17:28:30.864Z,3.22
2022-10-23T17:30:52.984Z,2.95
2022-10-23T17:33:14.526Z,2.85
2022-10-23T17:35:35.996Z,3.03
2022-10-23T17:37:57.466Z,3.90
2022-10-23T17:40:22.767Z,3.08
2022-10-23T17:42:46.784Z,3.30
2022-10-23T17:45:09.007Z,3.45
2022-10-23T17:47:30.549Z,3.33
2022-10-23T17:49:52.041Z,3.28
2022-10-23T17:52:15.042Z,3.30
2022-10-23T17:54:36.530Z,3.40
2022-10-23T17:56:58.039Z,3.85
2022-10-23T17:59:20.056Z,3.33
2022-10-23T18:01:48.170Z,3.72
2022-10-23T18:04:10.137Z,3.50
2022-10-23T18:06:35.237Z,3.50
2022-10-23T18:08:57.051Z,3.88
2022-10-23T18:11:23.352Z,3.97
2022-10-23T18:13:45.865Z,3.70
2022-10-23T18:16:11.372Z,3.58
2022-10-23T18:18:34.145Z,3.40
2022-10-23T18:21:05.677Z,3.25
2022-10-23T18:23:28.624Z,3.08
2022-10-23T18:25:50.322Z,3.50
2022-10-23T18:28:11.842Z,3.20
2022-10-23T18:33:03.012Z,3.00
2022-10-23T18:35:24.965Z,2.90
2022-10-23T18:37:46.494Z,3.47
2022-10-23T18:40:08.359Z,3.00
2022-10-23T18:42:29.861Z,3.00
2022-10-23T18:44:51.439Z,3.22
2022-10-23T18:47:13.051Z,2.83
2022-10-23T18:49:34.677Z,3.20
2022-10-23T18:51:56.186Z,3.22
2022-10-23T18:54:20.348Z,2.85
2022-10-23T18:56:42.393Z,3.38
2022-10-23T18:59:05.904Z,3.08
2022-10-23T19:01:29.222Z,3.42
2022-10-23T19:03:50.908Z,4.05
2022-10-23T19:06:13.215Z,3.88
2022-10-23T19:08:42.899Z,4.03
2022-10-23T19:11:06.497Z,6.22
2022-10-23T19:13:28.025Z,4.63
2022-10-23T19:15:49.522Z,4.28
2022-10-23T19:18:11.425Z,3.90
2022-10-23T19:20:33.180Z,2.88
2022-10-23T19:22:56.590Z,3.63
2022-10-23T19:25:23.020Z,3.75
2022-10-23T19:27:47.205Z,4.15
2022-10-23T19:30:13.744Z,4.03
2022-10-23T19:32:35.303Z,3.55
2022-10-23T19:34:56.847Z,3.65
2022-10-23T19:37:18.310Z,2.90
2022-10-23T19:39:39.857Z,3.33
2022-10-23T19:42:01.440Z,3.25
2022-10-23T19:44:22.942Z,3.72
2022-10-23T19:46:44.584Z,3.30
2022-10-23T19:49:06.841Z,3.50
2022-10-23T19:51:29.709Z,3.10
2022-10-23T19:56:17.617Z,3.53
2022-10-23T19:58:40.413Z,3.90
2022-10-23T20:01:14.306Z,3.10
2022-10-23T20:03:35.972Z,3.33
2022-10-23T20:05:57.725Z,3.33
2022-10-23T20:08:19.216Z,2.90
2022-10-23T20:10:45.990Z,3.47
2022-10-23T20:13:19.248Z,2.83
2022-10-23T20:15:41.938Z,3.35
2022-10-23T20:18:03.950Z,3.42
2022-10-23T20:20:25.457Z,2.67
2022-10-23T20:22:47.953Z,3.08
2022-10-23T20:25:10.729Z,3.05
2022-10-23T20:27:32.378Z,4.20
2022-10-23T20:29:53.895Z,4.13
2022-10-23T20:32:15.610Z,4.20
2022-10-23T20:34:38.463Z,3.65
2022-10-23T20:37:00.793Z,3.70
2022-10-23T20:39:26.876Z,3.65
2022-10-23T20:41:48.433Z,3.83
2022-10-23T20:44:12.888Z,3.40
2022-10-23T20:46:34.679Z,3.63
2022-10-23T20:48:56.259Z,2.75
2022-10-23T20:51:21.355Z,2.90
2022-10-23T20:53:44.722Z,2.67
2022-10-23T20:56:08.025Z,3.05
2022-10-23T20:58:29.697Z,2.80
2022-10-23T21:03:17.642Z,2.45
2022-10-23T21:05:39.115Z,2.85
2022-10-23T21:08:00.648Z,3.10
2022-10-23T21:10:22.088Z,3.50
2022-10-23T21:12:43.785Z,3.63
2022-10-23T21:15:06.041Z,4.13
2022-10-23T21:17:28.450Z,3.58
2022-10-23T21:19:50.049Z,3.22
2022-10-23T21:22:11.517Z,3.17
2022-10-23T21:24:33.046Z,3.47
2022-10-23T21:26:54.510Z,3.47
2022-10-23T21:29:20.024Z,3.67
2022-10-23T21:31:41.923Z,3.08
2022-10-23T21:34:03.757Z,3.38
2022-10-23T21:36:25.499Z,3.15
2022-10-23T21:38:49.129Z,3.50
2022-10-23T21:41:17.090Z,3.20
2022-10-23T21:43:38.682Z,2.92
2022-10-23T21:46:04.950Z,3.50
2022-10-23T21:48:28.418Z,3.33
2022-10-23T21:53:16.284Z,3.45
2022-10-23T21:55:38.003Z,3.38
2022-10-23T21:57:59.484Z,3.38
2022-10-23T22:00:21.611Z,3.25
2022-10-23T22:02:43.538Z,3.47
2022-10-23T22:05:05.433Z,3.33
2022-10-23T22:09:53.315Z,3.10
2022-10-23T22:12:15.022Z,2.95
2022-10-23T22:14:37.612Z,3.20
2022-10-23T22:16:59.090Z,3.25
2022-10-23T22:19:22.372Z,3.28
2022-10-23T22:21:44.124Z,3.20
2022-10-23T22:24:06.603Z,3.55
2022-10-23T22:26:30.025Z,3.85
2022-10-23T22:28:53.662Z,3.88
2022-10-23T22:31:20.802Z,4.18
2022-10-23T22:33:42.323Z,3.95
2022-10-23T22:36:04.111Z,3.72
2022-10-23T22:38:25.661Z,3.78
2022-10-23T22:40:47.115Z,3.80
2022-10-23T22:43:08.604Z,3.63
2022-10-23T22:45:30.095Z,3.90
2022-10-23T22:47:51.561Z,3.10
2022-10-23T22:50:13.040Z,3.35
2022-10-23T22:52:34.591Z,3.35
2022-10-23T22:54:56.076Z,3.50
2022-10-23T22:57:17.609Z,3.78
2022-10-23T22:59:39.172Z,3.47
2022-10-23T23:02:00.753Z,3.33
2022-10-23T23:04:38.989Z,3.13
2022-10-23T23:07:00.936Z,3.17
2022-10-23T23:09:22.481Z,3.03
2022-10-23T23:11:51.438Z,3.28
2022-10-23T23:14:14.410Z,2.95
2022-10-23T23:16:37.452Z,3.03
2022-10-23T23:19:00.757Z,3.00
2022-10-23T23:21:22.364Z,3.20
2022-10-23T23:23:44.448Z,3.17
2022-10-23T23:26:06.715Z,3.28
2022-10-23T23:28:28.242Z,3.67
2022-10-23T23:30:49.985Z,3.00
2022-10-23T23:33:13.251Z,2.83
2022-10-23T23:35:34.770Z,3.03
2022-10-23T23:37:56.276Z,2.75
2022-10-23T23:40:17.909Z,3.40
2022-10-23T23:42:39.406Z,2.92
2022-10-23T23:45:13.895Z,3.43
2022-10-23T23:47:36.393Z,3.10
2022-10-23T23:49:57.872Z,3.33
2022-10-23T23:52:19.770Z,3.40
2022-10-23T23:54:41.260Z,3.47
2022-10-23T23:57:05.813Z,3.33
2022-10-23T23:59:27.283Z,3.40
